createdAt,value
2022-09-25T00:00:07.037Z,0.00
2022-09-25T00:01:07.149Z,0.00
2022-09-25T00:02:07.317Z,0.00
2022-09-25T00:03:07.400Z,0.00
2022-09-25T00:04:07.514Z,0.00
2022-09-25T00:05:07.926Z,0.00
2022-09-25T00:06:07.744Z,0.00
2022-09-25T00:07:07.861Z,0.00
2022-09-25T00:08:07.952Z,0.00
2022-09-25T00:09:10.147Z,0.00
2022-09-25T00:10:08.224Z,0.00
2022-09-25T00:11:08.352Z,0.00
2022-09-25T00:12:08.483Z,0.00
2022-09-25T00:13:08.555Z,0.00
2022-09-25T00:14:08.693Z,0.00
2022-09-25T00:15:08.834Z,0.00
2022-09-25T00:16:09.013Z,0.00
2022-09-25T00:17:09.265Z,0.00
2022-09-25T00:18:09.339Z,0.00
2022-09-25T00:19:09.442Z,0.00
2022-09-25T00:20:09.594Z,0.00
2022-09-25T00:21:09.676Z,0.00
2022-09-25T00:22:09.809Z,0.00
2022-09-25T00:23:09.976Z,0.00
2022-09-25T00:24:10.118Z,0.00
2022-09-25T00:25:10.181Z,0.00
2022-09-25T00:26:10.343Z,0.00
2022-09-25T00:27:10.515Z,0.00
2022-09-25T00:28:13.153Z,0.00
2022-09-25T00:29:11.802Z,0.00
2022-09-25T00:30:10.943Z,0.00
2022-09-25T00:31:11.165Z,0.00
2022-09-25T00:32:11.261Z,0.00
2022-09-25T00:33:11.321Z,0.00
2022-09-25T00:34:11.551Z,0.00
2022-09-25T00:35:11.625Z,0.00
2022-09-25T00:36:11.732Z,0.00
2022-09-25T00:37:11.832Z,0.00
2022-09-25T00:38:11.963Z,0.00
2022-09-25T00:39:12.145Z,0.00
2022-09-25T00:40:12.310Z,0.00
2022-09-25T00:41:12.331Z,0.00
2022-09-25T00:42:12.512Z,0.00
2022-09-25T00:43:12.643Z,0.00
2022-09-25T00:44:12.762Z,0.00
2022-09-25T00:45:12.842Z,0.00
2022-09-25T00:46:13.045Z,0.00
2022-09-25T00:47:13.120Z,0.00
2022-09-25T00:48:13.358Z,0.00
2022-09-25T00:49:13.392Z,0.00
2022-09-25T00:50:13.639Z,0.00
2022-09-25T00:51:13.682Z,0.00
2022-09-25T00:52:13.784Z,0.00
2022-09-25T00:53:13.911Z,0.00
2022-09-25T00:54:14.054Z,0.00
2022-09-25T00:55:14.215Z,0.00
2022-09-25T00:56:14.385Z,0.00
2022-09-25T00:57:14.499Z,0.00
2022-09-25T00:58:14.585Z,0.00
2022-09-25T00:59:14.744Z,0.00
2022-09-25T01:00:14.891Z,0.00
2022-09-25T01:01:15.072Z,0.00
2022-09-25T01:02:15.182Z,0.00
2022-09-25T01:03:15.242Z,0.00
2022-09-25T01:04:15.400Z,0.00
2022-09-25T01:05:15.532Z,0.00
2022-09-25T01:06:15.704Z,0.00
2022-09-25T01:07:15.772Z,0.00
2022-09-25T01:08:15.945Z,0.00
2022-09-25T01:09:16.099Z,0.00
2022-09-25T01:10:16.266Z,0.00
2022-09-25T01:11:16.359Z,0.00
2022-09-25T01:12:16.481Z,0.00
2022-09-25T01:13:16.552Z,0.00
2022-09-25T01:14:16.720Z,0.00
2022-09-25T01:15:16.870Z,0.00
2022-09-25T01:16:17.073Z,0.00
2022-09-25T01:17:17.088Z,0.00
2022-09-25T01:18:17.233Z,0.00
2022-09-25T01:19:17.360Z,0.00
2022-09-25T01:20:17.503Z,0.00
2022-09-25T01:21:17.648Z,0.00
2022-09-25T01:22:17.777Z,0.00
2022-09-25T01:23:17.922Z,0.00
2022-09-25T01:24:18.816Z,0.00
2022-09-25T01:25:18.208Z,0.00
2022-09-25T01:26:18.403Z,0.00
2022-09-25T01:27:18.501Z,0.00
2022-09-25T01:28:18.650Z,0.00
2022-09-25T01:29:18.790Z,0.00
2022-09-25T01:30:18.889Z,0.00
2022-09-25T01:31:19.067Z,0.00
2022-09-25T01:32:19.141Z,0.00
2022-09-25T01:33:19.248Z,0.00
2022-09-25T01:34:19.402Z,0.00
2022-09-25T01:35:19.509Z,0.00
2022-09-25T01:36:19.631Z,0.00
2022-09-25T01:37:19.813Z,0.00
2022-09-25T01:38:19.957Z,0.00
2022-09-25T01:39:20.122Z,0.00
2022-09-25T01:40:20.303Z,0.00
2022-09-25T01:41:20.987Z,0.00
2022-09-25T01:42:20.509Z,0.00
2022-09-25T01:43:20.670Z,0.00
2022-09-25T01:44:20.791Z,0.00
2022-09-25T01:45:20.930Z,0.00
2022-09-25T01:46:21.102Z,0.00
2022-09-25T01:47:21.307Z,0.00
2022-09-25T01:48:21.396Z,0.00
2022-09-25T01:49:21.508Z,0.00
2022-09-25T01:50:21.675Z,0.00
2022-09-25T01:51:21.740Z,0.00
2022-09-25T01:52:21.901Z,0.00
2022-09-25T01:53:22.161Z,0.00
2022-09-25T01:54:22.166Z,0.00
2022-09-25T01:55:22.315Z,0.00
2022-09-25T01:56:22.488Z,0.00
2022-09-25T01:57:22.559Z,0.00
2022-09-25T01:58:22.736Z,0.00
2022-09-25T01:59:22.816Z,0.00
2022-09-25T02:00:22.990Z,0.00
2022-09-25T02:01:23.201Z,0.00
2022-09-25T02:02:23.287Z,0.00
2022-09-25T02:03:23.337Z,0.00
2022-09-25T02:04:23.527Z,0.00
2022-09-25T02:05:23.628Z,0.00
2022-09-25T02:06:23.974Z,0.00
2022-09-25T02:07:23.897Z,0.00
2022-09-25T02:08:24.013Z,0.00
2022-09-25T02:09:24.176Z,0.00
2022-09-25T02:10:24.290Z,0.00
2022-09-25T02:11:24.386Z,0.00
2022-09-25T02:12:24.529Z,0.00
2022-09-25T02:13:24.666Z,0.00
2022-09-25T02:14:24.846Z,0.00
2022-09-25T02:15:24.960Z,0.00
2022-09-25T02:16:25.150Z,0.00
2022-09-25T02:17:25.148Z,0.00
2022-09-25T02:18:25.338Z,0.00
2022-09-25T02:19:25.447Z,0.00
2022-09-25T02:20:25.578Z,0.00
2022-09-25T02:21:25.621Z,0.00
2022-09-25T02:22:25.755Z,0.00
2022-09-25T02:23:25.886Z,0.00
2022-09-25T02:24:26.174Z,0.00
2022-09-25T02:25:26.133Z,0.00
2022-09-25T02:26:26.301Z,0.00
2022-09-25T02:27:26.367Z,0.00
2022-09-25T02:28:26.517Z,0.00
2022-09-25T02:29:26.610Z,0.00
2022-09-25T02:30:26.766Z,0.00
2022-09-25T02:31:26.869Z,0.00
2022-09-25T02:32:27.048Z,0.00
2022-09-25T02:33:28.639Z,0.00
2022-09-25T02:34:27.373Z,0.00
2022-09-25T02:35:27.474Z,0.00
2022-09-25T02:36:27.647Z,0.00
2022-09-25T02:37:27.807Z,0.00
2022-09-25T02:38:27.897Z,0.00
2022-09-25T02:39:27.994Z,0.00
2022-09-25T02:40:28.193Z,0.00
2022-09-25T02:41:28.255Z,0.00
2022-09-25T02:42:28.436Z,0.00
2022-09-25T02:43:28.623Z,0.00
2022-09-25T02:44:28.717Z,0.00
2022-09-25T02:45:28.816Z,0.00
2022-09-25T02:46:30.585Z,0.00
2022-09-25T02:47:29.048Z,0.00
2022-09-25T02:48:29.165Z,0.00
2022-09-25T02:49:29.337Z,0.00
2022-09-25T02:50:29.496Z,0.00
2022-09-25T02:51:29.644Z,0.00
2022-09-25T02:52:29.797Z,0.00
2022-09-25T02:53:29.978Z,0.00
2022-09-25T02:54:30.117Z,0.00
2022-09-25T02:55:30.244Z,0.00
2022-09-25T02:56:30.392Z,0.00
2022-09-25T02:57:30.534Z,0.00
2022-09-25T02:58:30.600Z,0.00
2022-09-25T02:59:30.757Z,0.00
2022-09-25T03:00:30.898Z,0.00
2022-09-25T03:01:31.050Z,0.00
2022-09-25T03:02:31.270Z,0.00
2022-09-25T03:03:31.236Z,0.00
2022-09-25T03:04:31.366Z,0.00
2022-09-25T03:05:31.527Z,0.00
2022-09-25T03:06:31.686Z,0.00
2022-09-25T03:07:31.834Z,0.00
2022-09-25T03:08:32.023Z,0.00
2022-09-25T03:09:32.108Z,0.00
2022-09-25T03:10:32.221Z,0.00
2022-09-25T03:11:32.315Z,0.00
2022-09-25T03:12:32.447Z,0.00
2022-09-25T03:13:32.615Z,0.00
2022-09-25T03:14:32.689Z,0.00
2022-09-25T03:15:32.802Z,0.00
2022-09-25T03:16:33.021Z,0.00
2022-09-25T03:17:33.075Z,0.00
2022-09-25T03:18:33.214Z,0.00
2022-09-25T03:19:34.927Z,0.00
2022-09-25T03:20:33.524Z,0.00
2022-09-25T03:21:33.680Z,0.00
2022-09-25T03:22:33.854Z,0.00
2022-09-25T03:23:33.985Z,0.00
2022-09-25T03:24:34.127Z,0.00
2022-09-25T03:25:34.203Z,0.00
2022-09-25T03:26:34.303Z,0.00
2022-09-25T03:27:34.415Z,0.00
2022-09-25T03:28:34.552Z,0.00
2022-09-25T03:29:34.712Z,0.00
2022-09-25T03:30:34.897Z,0.00
2022-09-25T03:31:34.963Z,0.00
2022-09-25T03:32:35.113Z,0.00
2022-09-25T03:33:35.246Z,0.00
2022-09-25T03:34:35.403Z,0.00
2022-09-25T03:35:35.581Z,0.00
2022-09-25T03:36:35.681Z,0.00
2022-09-25T03:37:35.764Z,0.00
2022-09-25T03:38:35.909Z,0.00
2022-09-25T03:39:36.081Z,0.00
2022-09-25T03:40:36.283Z,0.00
2022-09-25T03:41:36.353Z,0.00
2022-09-25T03:42:36.502Z,0.00
2022-09-25T03:43:36.642Z,0.00
2022-09-25T03:44:36.812Z,0.00
2022-09-25T03:45:36.946Z,0.00
2022-09-25T03:46:37.193Z,0.00
2022-09-25T03:47:37.287Z,0.00
2022-09-25T03:48:37.353Z,0.00
2022-09-25T03:49:37.493Z,0.00
2022-09-25T03:50:37.602Z,0.00
2022-09-25T03:51:37.742Z,0.00
2022-09-25T03:52:37.853Z,0.00
2022-09-25T03:53:37.958Z,0.00
2022-09-25T03:54:38.122Z,0.00
2022-09-25T03:55:38.274Z,0.00
2022-09-25T03:56:38.389Z,0.00
2022-09-25T03:57:38.554Z,0.00
2022-09-25T03:58:38.658Z,0.00
2022-09-25T03:59:38.772Z,0.00
2022-09-25T04:00:38.871Z,0.00
2022-09-25T04:01:39.019Z,0.00
2022-09-25T04:02:39.214Z,0.00
2022-09-25T04:03:39.295Z,0.00
2022-09-25T04:04:39.414Z,0.00
2022-09-25T04:05:39.542Z,0.00
2022-09-25T04:06:39.671Z,0.00
2022-09-25T04:07:39.824Z,0.00
2022-09-25T04:08:39.954Z,0.00
2022-09-25T04:09:40.041Z,0.00
2022-09-25T04:10:40.138Z,0.00
2022-09-25T04:11:40.278Z,0.00
2022-09-25T04:12:40.421Z,0.00
2022-09-25T04:13:40.594Z,0.00
2022-09-25T04:14:40.652Z,0.00
2022-09-25T04:15:40.812Z,0.00
2022-09-25T04:16:41.018Z,0.00
2022-09-25T04:17:41.128Z,0.00
2022-09-25T04:18:41.239Z,0.00
2022-09-25T04:19:41.407Z,0.00
2022-09-25T04:20:41.509Z,0.00
2022-09-25T04:21:41.666Z,0.00
2022-09-25T04:22:41.812Z,0.00
2022-09-25T04:23:41.944Z,0.00
2022-09-25T04:24:42.089Z,0.00
2022-09-25T04:25:42.421Z,0.00
2022-09-25T04:26:42.392Z,0.00
2022-09-25T04:27:42.569Z,0.00
2022-09-25T04:28:42.667Z,0.00
2022-09-25T04:29:50.324Z,0.00
2022-09-25T04:30:43.005Z,0.00
2022-09-25T04:31:43.042Z,0.00
2022-09-25T04:32:43.100Z,0.00
2022-09-25T04:33:43.249Z,0.00
2022-09-25T04:34:43.356Z,0.00
2022-09-25T04:35:43.502Z,0.00
2022-09-25T04:36:43.593Z,0.00
2022-09-25T04:37:43.730Z,0.00
2022-09-25T04:38:44.011Z,0.00
2022-09-25T04:39:43.997Z,0.00
2022-09-25T04:40:44.211Z,0.00
2022-09-25T04:41:44.263Z,0.00
2022-09-25T04:42:44.363Z,0.00
2022-09-25T04:43:44.503Z,0.00
2022-09-25T04:44:44.701Z,0.00
2022-09-25T04:45:44.820Z,0.00
2022-09-25T04:46:44.947Z,0.00
2022-09-25T04:47:45.033Z,0.00
2022-09-25T04:48:45.144Z,0.00
2022-09-25T04:49:45.260Z,0.00
2022-09-25T04:50:45.433Z,0.00
2022-09-25T04:51:45.573Z,0.00
2022-09-25T04:52:45.712Z,0.00
2022-09-25T04:53:45.852Z,4.00
2022-09-25T04:54:46.043Z,0.00
2022-09-25T04:55:46.123Z,4.00
2022-09-25T04:56:46.281Z,4.00
2022-09-25T04:57:58.529Z,4.00
2022-09-25T04:58:47.747Z,4.00
2022-09-25T04:59:46.687Z,4.00
2022-09-25T05:00:46.814Z,8.00
2022-09-25T05:01:47.081Z,8.00
2022-09-25T05:02:47.196Z,12.00
2022-09-25T05:03:47.260Z,12.00
2022-09-25T05:04:47.329Z,16.00
2022-09-25T05:05:47.482Z,16.00
2022-09-25T05:06:47.641Z,20.00
2022-09-25T05:07:47.740Z,24.00
2022-09-25T05:08:47.872Z,32.00
2022-09-25T05:09:48.041Z,36.00
2022-09-25T05:10:48.108Z,44.00
2022-09-25T05:11:48.260Z,48.00
2022-09-25T05:12:48.439Z,56.00
2022-09-25T05:13:48.585Z,68.00
2022-09-25T05:14:48.721Z,76.00
2022-09-25T05:15:48.989Z,88.00
2022-09-25T05:16:49.015Z,100.00
2022-09-25T05:17:49.143Z,116.00
2022-09-25T05:18:49.272Z,132.00
2022-09-25T05:19:49.446Z,148.00
2022-09-25T05:20:49.539Z,168.00
2022-09-25T05:21:49.658Z,188.00
2022-09-25T05:22:49.749Z,208.00
2022-09-25T05:23:49.905Z,232.00
2022-09-25T05:24:50.022Z,252.00
2022-09-25T05:25:50.173Z,276.00
2022-09-25T05:26:50.249Z,304.00
2022-09-25T05:27:50.386Z,328.00
2022-09-25T05:28:50.528Z,356.00
2022-09-25T05:29:50.683Z,384.00
2022-09-25T05:30:50.778Z,412.00
2022-09-25T05:31:50.984Z,444.00
2022-09-25T05:32:51.084Z,476.00
2022-09-25T05:33:51.195Z,508.00
2022-09-25T05:34:51.298Z,536.00
2022-09-25T05:35:51.404Z,568.00
2022-09-25T05:36:51.528Z,600.00
2022-09-25T05:37:51.609Z,628.00
2022-09-25T05:38:51.767Z,664.00
2022-09-25T05:39:51.947Z,696.00
2022-09-25T05:40:52.128Z,728.00
2022-09-25T05:41:52.269Z,760.00
2022-09-25T05:42:52.409Z,788.00
2022-09-25T05:43:52.577Z,824.00
2022-09-25T05:44:52.728Z,860.00
2022-09-25T05:45:52.844Z,892.00
2022-09-25T05:46:52.990Z,924.00
2022-09-25T05:47:53.074Z,960.00
2022-09-25T05:48:53.248Z,992.00
2022-09-25T05:49:53.321Z,1028.00
2022-09-25T05:50:53.445Z,1068.00
2022-09-25T05:51:53.626Z,1112.00
2022-09-25T05:52:53.697Z,1156.00
2022-09-25T05:53:53.833Z,1196.00
2022-09-25T05:54:53.974Z,1244.00
2022-09-25T05:55:54.150Z,1280.00
2022-09-25T05:56:54.198Z,1320.00
2022-09-25T05:57:54.344Z,1356.00
2022-09-25T05:58:54.467Z,1388.00
2022-09-25T05:59:54.655Z,1420.00
2022-09-25T06:00:54.765Z,1448.00
2022-09-25T06:01:54.953Z,1480.00
2022-09-25T06:02:55.086Z,1508.00
2022-09-25T06:03:55.208Z,1536.00
2022-09-25T06:04:55.371Z,1564.00
2022-09-25T06:05:55.446Z,1588.00
2022-09-25T06:06:55.576Z,1616.00
2022-09-25T06:07:55.718Z,1644.00
2022-09-25T06:08:55.834Z,1668.00
2022-09-25T06:09:55.965Z,1696.00
2022-09-25T06:10:56.085Z,1716.00
2022-09-25T06:11:56.243Z,1744.00
2022-09-25T06:12:56.414Z,1764.00
2022-09-25T06:13:56.486Z,1792.00
2022-09-25T06:14:56.614Z,1808.00
2022-09-25T06:15:56.784Z,1832.00
2022-09-25T06:16:56.916Z,1856.00
2022-09-25T06:17:57.071Z,1880.00
2022-09-25T06:18:57.167Z,1896.00
2022-09-25T06:19:57.316Z,1924.00
2022-09-25T06:20:57.464Z,1944.00
2022-09-25T06:21:57.573Z,1964.00
2022-09-25T06:22:57.705Z,1988.00
2022-09-25T06:23:57.891Z,2008.00
2022-09-25T06:24:58.045Z,2028.00
2022-09-25T06:25:58.097Z,2048.00
2022-09-25T06:26:58.231Z,2072.00
2022-09-25T06:27:58.364Z,2092.00
2022-09-25T06:29:02.845Z,2116.00
2022-09-25T06:29:58.626Z,2132.00
2022-09-25T06:30:58.824Z,2152.00
2022-09-25T06:31:58.863Z,2172.00
2022-09-25T06:32:59.032Z,2192.00
2022-09-25T06:33:59.133Z,2224.00
2022-09-25T06:34:59.212Z,2244.00
2022-09-25T06:35:59.360Z,2264.00
2022-09-25T06:36:59.473Z,2284.00
2022-09-25T06:37:59.636Z,2300.00
2022-09-25T06:38:59.862Z,2324.00
2022-09-25T06:39:59.840Z,2348.00
2022-09-25T06:41:00.662Z,2372.00
2022-09-25T06:42:00.127Z,2388.00
2022-09-25T06:43:00.268Z,2416.00
2022-09-25T06:44:00.390Z,2436.00
2022-09-25T06:45:00.490Z,2460.00
2022-09-25T06:46:00.691Z,2488.00
2022-09-25T06:47:00.698Z,2500.00
2022-09-25T06:48:00.811Z,2516.00
2022-09-25T06:49:00.949Z,2532.00
2022-09-25T06:50:01.033Z,2548.00
2022-09-25T06:51:01.173Z,2568.00
2022-09-25T06:52:01.322Z,2584.00
2022-09-25T06:53:01.420Z,2596.00
2022-09-25T06:54:01.579Z,2620.00
2022-09-25T06:55:01.705Z,2632.00
2022-09-25T06:56:01.791Z,2652.00
2022-09-25T06:57:01.891Z,2668.00
2022-09-25T06:58:02.071Z,2684.00
2022-09-25T06:59:02.154Z,2700.00
2022-09-25T07:00:02.973Z,2720.00
2022-09-25T07:01:05.200Z,2736.00
2022-09-25T07:02:03.637Z,2756.00
2022-09-25T07:03:02.673Z,2764.00
2022-09-25T07:04:02.763Z,2780.00
2022-09-25T07:05:02.869Z,2804.00
2022-09-25T07:06:03.013Z,2824.00
2022-09-25T07:07:03.139Z,2844.00
2022-09-25T07:08:03.291Z,2856.00
2022-09-25T07:09:03.438Z,2868.00
2022-09-25T07:10:03.610Z,2880.00
2022-09-25T07:11:03.679Z,2892.00
2022-09-25T07:12:03.831Z,2900.00
2022-09-25T07:13:03.969Z,2916.00
2022-09-25T07:14:04.150Z,2928.00
2022-09-25T07:15:04.776Z,2944.00
2022-09-25T07:16:04.354Z,2956.00
2022-09-25T07:17:04.431Z,2972.00
2022-09-25T07:18:04.566Z,2992.00
2022-09-25T07:19:04.708Z,3008.00
2022-09-25T07:20:04.874Z,3020.00
2022-09-25T07:21:04.962Z,3024.00
2022-09-25T07:22:06.091Z,3040.00
2022-09-25T07:23:05.215Z,3052.00
2022-09-25T07:24:05.339Z,3064.00
2022-09-25T07:25:05.500Z,3072.00
2022-09-25T07:26:05.609Z,3088.00
2022-09-25T07:27:05.759Z,3108.00
2022-09-25T07:28:05.850Z,3128.00
2022-09-25T07:29:06.002Z,3136.00
2022-09-25T07:30:06.496Z,3152.00
2022-09-25T07:31:06.343Z,3156.00
2022-09-25T07:32:06.367Z,3164.00
2022-09-25T07:33:06.492Z,3184.00
2022-09-25T07:34:06.567Z,3196.00
2022-09-25T07:35:07.444Z,3208.00
2022-09-25T07:36:06.869Z,3220.00
2022-09-25T07:37:07.003Z,3228.00
2022-09-25T07:38:07.078Z,3240.00
2022-09-25T07:39:07.217Z,3248.00
2022-09-25T07:40:07.347Z,3252.00
2022-09-25T07:41:07.488Z,3264.00
2022-09-25T07:42:07.646Z,3276.00
2022-09-25T07:43:07.754Z,3284.00
2022-09-25T07:45:08.978Z,3316.00
2022-09-25T07:46:08.136Z,3336.00
2022-09-25T07:47:08.983Z,3352.00
2022-09-25T07:48:08.365Z,3372.00
2022-09-25T07:49:08.539Z,3380.00
2022-09-25T07:50:12.046Z,3396.00
2022-09-25T07:51:09.749Z,3412.00
2022-09-25T07:52:08.897Z,3436.00
2022-09-25T07:53:09.000Z,3448.00
2022-09-25T07:54:09.149Z,3460.00
2022-09-25T07:55:09.256Z,3484.00
2022-09-25T07:56:09.403Z,3500.00
2022-09-25T07:57:09.534Z,3508.00
2022-09-25T07:58:09.686Z,3516.00
2022-09-25T07:59:09.807Z,3524.00
2022-09-25T08:00:09.907Z,3540.00
2022-09-25T08:01:10.079Z,3552.00
2022-09-25T08:02:10.196Z,3560.00
2022-09-25T08:03:10.357Z,3568.00
2022-09-25T08:04:10.530Z,3588.00
2022-09-25T08:05:10.575Z,3588.00
2022-09-25T08:06:10.659Z,3604.00
2022-09-25T08:07:10.805Z,3620.00
2022-09-25T08:08:10.914Z,3640.00
2022-09-25T08:09:11.116Z,3656.00
2022-09-25T08:10:11.195Z,3672.00
2022-09-25T08:11:11.311Z,3688.00
2022-09-25T08:12:11.398Z,3700.00
2022-09-25T08:13:11.544Z,3720.00
2022-09-25T08:14:11.637Z,3736.00
2022-09-25T08:15:11.826Z,3756.00
2022-09-25T08:16:11.916Z,3780.00
2022-09-25T08:17:12.016Z,3796.00
2022-09-25T08:18:12.116Z,3820.00
2022-09-25T08:19:12.257Z,3840.00
2022-09-25T08:20:12.418Z,3868.00
2022-09-25T08:21:12.515Z,3892.00
2022-09-25T08:22:12.603Z,3924.00
2022-09-25T08:23:12.751Z,3956.00
2022-09-25T08:24:12.940Z,3984.00
2022-09-25T08:25:13.069Z,4012.00
2022-09-25T08:26:13.125Z,4040.00
2022-09-25T08:27:13.243Z,4072.00
2022-09-25T08:28:13.374Z,4108.00
2022-09-25T08:29:13.519Z,4148.00
2022-09-25T08:30:13.644Z,4188.00
2022-09-25T08:31:13.764Z,4220.00
2022-09-25T08:32:13.848Z,4248.00
2022-09-25T08:33:15.786Z,4268.00
2022-09-25T08:34:39.517Z,4296.00
2022-09-25T08:35:15.339Z,4328.00
2022-09-25T08:36:14.381Z,4372.00
2022-09-25T08:37:14.522Z,4400.00
2022-09-25T08:38:14.626Z,4440.00
2022-09-25T08:39:14.775Z,4492.00
2022-09-25T08:40:14.926Z,4548.00
2022-09-25T08:41:15.035Z,4588.00
2022-09-25T08:42:15.146Z,4636.00
2022-09-25T08:43:15.253Z,4688.00
2022-09-25T08:44:15.353Z,4796.00
2022-09-25T08:45:21.637Z,4884.00
2022-09-25T08:46:16.672Z,4796.00
2022-09-25T08:47:19.214Z,5152.00
2022-09-25T08:48:15.873Z,5168.00
2022-09-25T08:49:16.015Z,5288.00
2022-09-25T08:50:16.157Z,5372.00
2022-09-25T08:51:16.262Z,6060.00
2022-09-25T08:52:16.415Z,10356.00
2022-09-25T08:53:16.515Z,12324.00
2022-09-25T08:54:16.656Z,10888.00
2022-09-25T08:55:16.802Z,9944.00
2022-09-25T08:56:16.943Z,11332.00
2022-09-25T08:57:17.114Z,11796.00
2022-09-25T08:58:17.197Z,9776.00
2022-09-25T08:59:17.335Z,12980.00
2022-09-25T09:00:17.476Z,13808.00
2022-09-25T09:01:17.894Z,11500.00
2022-09-25T09:02:17.764Z,12196.00
2022-09-25T09:03:17.865Z,12788.00
2022-09-25T09:04:17.977Z,13172.00
2022-09-25T09:05:18.114Z,15424.00
2022-09-25T09:06:18.256Z,14560.00
2022-09-25T09:07:27.246Z,13064.00
2022-09-25T09:08:19.524Z,13984.00
2022-09-25T09:09:20.135Z,15040.00
2022-09-25T09:10:18.801Z,15680.00
2022-09-25T09:11:18.897Z,12868.00
2022-09-25T09:12:19.007Z,16544.00
2022-09-25T09:13:19.235Z,15840.00
2022-09-25T09:14:19.264Z,14656.00
2022-09-25T09:15:19.416Z,8020.00
2022-09-25T09:16:19.648Z,6700.00
2022-09-25T09:17:19.700Z,6864.00
2022-09-25T09:18:19.813Z,15104.00
2022-09-25T09:19:19.927Z,16576.00
2022-09-25T09:20:20.028Z,17440.00
2022-09-25T09:21:20.173Z,16736.00
2022-09-25T09:22:20.314Z,9196.00
2022-09-25T09:23:20.476Z,7836.00
2022-09-25T09:24:20.648Z,7808.00
2022-09-25T09:25:20.687Z,10760.00
2022-09-25T09:26:20.815Z,10996.00
2022-09-25T09:27:20.960Z,10408.00
2022-09-25T09:28:21.096Z,12224.00
2022-09-25T09:29:21.245Z,11776.00
2022-09-25T09:30:21.339Z,12784.00
2022-09-25T09:31:21.533Z,13320.00
2022-09-25T09:32:21.616Z,11868.00
2022-09-25T09:33:21.775Z,14256.00
2022-09-25T09:34:21.876Z,11764.00
2022-09-25T09:35:23.198Z,10704.00
2022-09-25T09:36:22.156Z,11548.00
2022-09-25T09:37:22.289Z,13036.00
2022-09-25T09:38:22.373Z,11948.00
2022-09-25T09:39:22.536Z,11712.00
2022-09-25T09:40:22.703Z,12116.00
2022-09-25T09:41:22.765Z,8624.00
2022-09-25T09:42:22.886Z,7924.00
2022-09-25T09:43:23.038Z,7988.00
2022-09-25T09:44:23.176Z,8172.00
2022-09-25T09:45:23.285Z,7916.00
2022-09-25T09:46:23.427Z,7884.00
2022-09-25T09:47:23.500Z,7976.00
2022-09-25T09:48:23.641Z,8176.00
2022-09-25T09:49:23.774Z,8400.00
2022-09-25T09:50:23.915Z,8768.00
2022-09-25T09:51:24.057Z,14164.00
2022-09-25T09:52:24.189Z,18400.00
2022-09-25T09:53:24.326Z,11504.00
2022-09-25T09:54:24.455Z,24512.00
2022-09-25T09:55:24.631Z,40608.00
2022-09-25T09:56:26.161Z,46496.00
2022-09-25T09:57:24.878Z,49184.00
2022-09-25T09:58:24.967Z,11984.00
2022-09-25T09:59:25.107Z,10488.00
2022-09-25T10:00:25.257Z,10168.00
2022-09-25T10:01:42.413Z,11004.00
2022-09-25T10:02:26.537Z,50880.00
2022-09-25T10:03:25.689Z,12456.00
2022-09-25T10:04:25.747Z,12868.00
2022-09-25T10:05:25.848Z,25152.00
2022-09-25T10:06:25.937Z,13952.00
2022-09-25T10:07:26.108Z,16044.00
2022-09-25T10:08:26.188Z,10956.00
2022-09-25T10:09:26.351Z,15860.00
2022-09-25T10:10:26.469Z,12388.00
2022-09-25T10:11:26.550Z,11352.00
2022-09-25T10:12:26.725Z,52768.00
2022-09-25T10:13:26.814Z,54368.00
2022-09-25T10:14:26.953Z,53120.00
2022-09-25T10:15:27.109Z,51360.00
2022-09-25T10:16:27.206Z,48448.00
2022-09-25T10:17:27.499Z,55584.00
2022-09-25T10:18:27.470Z,54336.00
2022-09-25T10:19:27.617Z,60320.00
2022-09-25T10:20:27.709Z,59872.00
2022-09-25T10:21:27.858Z,13892.00
2022-09-25T10:22:29.490Z,11888.00
2022-09-25T10:23:28.137Z,10936.00
2022-09-25T10:24:28.238Z,9932.00
2022-09-25T10:25:28.380Z,9008.00
2022-09-25T10:26:28.519Z,8564.00
2022-09-25T10:27:28.718Z,7808.00
2022-09-25T10:28:28.790Z,7360.00
2022-09-25T10:29:36.091Z,7824.00
2022-09-25T10:30:29.087Z,53312.00
2022-09-25T10:31:29.230Z,59776.00
2022-09-25T10:32:29.314Z,62816.00
2022-09-25T10:33:29.419Z,57824.00
2022-09-25T10:34:29.542Z,58720.00
2022-09-25T10:35:29.646Z,55456.00
2022-09-25T10:36:29.803Z,52608.00
2022-09-25T10:37:29.970Z,58272.00
2022-09-25T10:38:30.049Z,60288.00
2022-09-25T10:39:46.370Z,64416.00
2022-09-25T10:40:31.369Z,60032.00
2022-09-25T10:41:30.440Z,59200.00
2022-09-25T10:42:30.550Z,65824.00
2022-09-25T10:43:30.699Z,70336.00
2022-09-25T10:44:30.840Z,14636.00
2022-09-25T10:45:31.001Z,11512.00
2022-09-25T10:46:31.162Z,19776.00
2022-09-25T10:47:31.248Z,12804.00
2022-09-25T10:48:31.393Z,10308.00
2022-09-25T10:49:31.557Z,9796.00
2022-09-25T10:50:31.654Z,46432.00
2022-09-25T10:51:31.801Z,68928.00
2022-09-25T10:52:31.941Z,67296.00
2022-09-25T10:53:32.085Z,67424.00
2022-09-25T10:54:32.234Z,69632.00
2022-09-25T10:55:32.340Z,68160.00
2022-09-25T10:56:32.452Z,59584.00
2022-09-25T10:57:32.606Z,60576.00
2022-09-25T10:58:32.743Z,68320.00
2022-09-25T10:59:32.916Z,55776.00
2022-09-25T11:00:33.010Z,15600.00
2022-09-25T11:01:33.168Z,10724.00
2022-09-25T11:02:33.293Z,10804.00
2022-09-25T11:03:33.383Z,71840.00
2022-09-25T11:04:33.485Z,67936.00
2022-09-25T11:05:33.595Z,71584.00
2022-09-25T11:06:33.744Z,46208.00
2022-09-25T11:07:33.899Z,79584.00
2022-09-25T11:08:34.002Z,80448.00
2022-09-25T11:09:34.137Z,73184.00
2022-09-25T11:10:34.243Z,70848.00
2022-09-25T11:11:34.344Z,75168.00
2022-09-25T11:12:34.455Z,76128.00
2022-09-25T11:13:34.672Z,76320.00
2022-09-25T11:14:34.748Z,72576.00
2022-09-25T11:15:34.948Z,68544.00
2022-09-25T11:16:35.024Z,68736.00
2022-09-25T11:17:35.118Z,72704.00
2022-09-25T11:18:36.255Z,79520.00
2022-09-25T11:19:35.422Z,76864.00
2022-09-25T11:20:35.556Z,71168.00
2022-09-25T11:21:35.732Z,72352.00
2022-09-25T11:22:35.804Z,73760.00
2022-09-25T11:23:35.898Z,69024.00
2022-09-25T11:24:36.026Z,70560.00
2022-09-25T11:25:36.128Z,73088.00
2022-09-25T11:26:36.272Z,67680.00
2022-09-25T11:27:36.377Z,66400.00
2022-09-25T11:28:36.556Z,73184.00
2022-09-25T11:29:36.635Z,75264.00
2022-09-25T11:30:37.054Z,18656.00
2022-09-25T11:31:36.918Z,43424.00
2022-09-25T11:32:37.018Z,49280.00
2022-09-25T11:33:37.116Z,16960.00
2022-09-25T11:34:37.257Z,22528.00
2022-09-25T11:35:37.398Z,74400.00
2022-09-25T11:36:37.557Z,72512.00
2022-09-25T11:37:37.668Z,75552.00
2022-09-25T11:38:37.777Z,78112.00
2022-09-25T11:39:37.924Z,78720.00
2022-09-25T11:40:38.112Z,76544.00
2022-09-25T11:41:38.345Z,74816.00
2022-09-25T11:42:39.067Z,76736.00
2022-09-25T11:43:38.446Z,76160.00
2022-09-25T11:44:38.568Z,75008.00
2022-09-25T11:45:38.670Z,80800.00
2022-09-25T11:46:38.825Z,83872.00
2022-09-25T11:47:38.918Z,83072.00
2022-09-25T11:48:39.060Z,78368.00
2022-09-25T11:49:39.307Z,74688.00
2022-09-25T11:50:39.338Z,78592.00
2022-09-25T11:51:39.487Z,82560.00
2022-09-25T11:52:39.627Z,78656.00
2022-09-25T11:53:39.765Z,78304.00
2022-09-25T11:54:40.310Z,70720.00
2022-09-25T11:55:43.280Z,77280.00
2022-09-25T11:56:40.200Z,78976.00
2022-09-25T11:57:40.306Z,80512.00
2022-09-25T11:58:40.422Z,82496.00
2022-09-25T11:59:40.568Z,83968.00
2022-09-25T12:00:40.711Z,81760.00
2022-09-25T12:01:40.895Z,81440.00
2022-09-25T12:02:41.433Z,63456.00
2022-09-25T12:03:41.073Z,17440.00
2022-09-25T12:04:41.785Z,34176.00
2022-09-25T12:05:41.348Z,13068.00
2022-09-25T12:06:41.490Z,11812.00
2022-09-25T12:07:41.639Z,11472.00
2022-09-25T12:08:41.788Z,10888.00
2022-09-25T12:09:41.889Z,10268.00
2022-09-25T12:10:43.865Z,9960.00
2022-09-25T12:11:42.131Z,9644.00
2022-09-25T12:12:42.268Z,9176.00
2022-09-25T12:13:42.422Z,8672.00
2022-09-25T12:14:42.509Z,8016.00
2022-09-25T12:15:42.648Z,7308.00
2022-09-25T12:16:42.944Z,6728.00
2022-09-25T12:17:42.921Z,6344.00
2022-09-25T12:18:43.074Z,6116.00
2022-09-25T12:19:43.172Z,5924.00
2022-09-25T12:20:43.322Z,5724.00
2022-09-25T12:21:43.463Z,5604.00
2022-09-25T12:22:43.610Z,5568.00
2022-09-25T12:23:43.700Z,5624.00
2022-09-25T12:24:43.848Z,5608.00
2022-09-25T12:25:43.959Z,5536.00
2022-09-25T12:26:44.102Z,5476.00
2022-09-25T12:27:44.233Z,5364.00
2022-09-25T12:28:44.373Z,5224.00
2022-09-25T12:29:44.615Z,5072.00
2022-09-25T12:30:44.710Z,5004.00
2022-09-25T12:31:44.783Z,5052.00